Time;durP1;ratioP1;P1;durP2;ratioP2;P2;SDS_P1;SDS_P2;PMS_P1;PMS_P2;Temp;Humidity;BMP_temperature;BMP_pressure;BME280_temperature;BME280_humidity;BME280_pressure;Samples;Min_cycle;Max_cycle;Signal;HPM_P1;HPM_P2
2023/05/13 00:01:27;;;;;;;57.60;29.75;;;11.20;99.90;;;;;;5016924;28;20026;-87
2023/05/13 00:03:53;;;;;;;69.57;32.28;;;11.20;99.90;;;;;;5017073;28;20022;-87
2023/05/13 00:06:19;;;;;;;62.97;32.28;;;11.20;99.90;;;;;;5016894;28;20036;-86
2023/05/13 00:08:45;;;;;;;64.47;30.95;;;11.20;99.90;;;;;;5000710;28;20033;-86
2023/05/13 00:11:11;;;;;;;67.10;31.95;;;11.20;99.90;;;;;;5016382;28;20419;-87
2023/05/13 00:13:37;;;;;;;71.25;30.23;;;11.20;99.90;;;;;;5017016;28;20077;-87
2023/05/13 00:16:03;;;;;;;75.90;34.28;;;11.20;99.90;;;;;;5000585;28;20026;-87
2023/05/13 00:18:29;;;;;;;70.45;31.63;;;11.20;99.90;;;;;;5000252;28;20033;-87
2023/05/13 00:20:55;;;;;;;83.70;33.70;;;11.10;99.90;;;;;;5018047;28;20054;-86
2023/05/13 00:23:22;;;;;;;60.60;30.52;;;11.20;99.90;;;;;;5000402;28;20026;-87
2023/05/13 00:25:48;;;;;;;53.25;26.85;;;11.20;99.90;;;;;;5021023;28;20029;-87
2023/05/13 00:28:14;;;;;;;53.97;27.85;;;11.30;99.90;;;;;;5020126;28;20112;-87
2023/05/13 00:30:42;;;;;;;61.15;29.42;;;11.20;99.90;;;;;;5020007;28;20061;-89
2023/05/13 00:33:08;;;;;;;57.33;28.77;;;11.30;99.90;;;;;;5020055;28;20093;-90
2023/05/13 00:35:35;;;;;;;52.63;27.65;;;11.30;99.90;;;;;;5036656;28;20470;-89
2023/05/13 00:38:01;;;;;;;46.65;23.67;;;11.40;99.90;;;;;;5019572;28;20048;-90
2023/05/13 00:40:27;;;;;;;46.70;24.70;;;11.50;99.90;;;;;;5019644;28;20078;-90
2023/05/13 00:42:53;;;;;;;72.80;31.85;;;11.50;99.90;;;;;;5019622;28;20391;-89
2023/05/13 00:45:20;;;;;;;79.68;31.83;;;11.50;99.90;;;;;;5026169;28;20029;-89
2023/05/13 00:47:48;;;;;;;82.13;32.45;;;11.50;99.90;;;;;;5000071;28;20112;-89
2023/05/13 00:50:14;;;;;;;96.13;33.60;;;11.50;99.90;;;;;;5016178;28;20026;-89
2023/05/13 00:52:41;;;;;;;137.02;33.17;;;11.50;99.90;;;;;;4999910;28;20388;-89
2023/05/13 00:55:09;;;;;;;124.53;34.58;;;11.60;99.90;;;;;;4999718;28;20398;-89
2023/05/13 00:57:36;;;;;;;119.80;36.08;;;11.60;99.90;;;;;;4999646;28;20026;-90
2023/05/13 01:00:04;;;;;;;99.43;32.80;;;11.60;99.90;;;;;;5016064;28;20030;-90
2023/05/13 01:02:58;;;;;;;102.72;36.20;;;11.60;99.90;;;;;;4999743;28;20034;-89
2023/05/13 01:05:34;;;;;;;159.02;36.42;;;11.50;99.90;;;;;;5016004;28;20080;-90
2023/05/13 01:08:35;;;;;;;102.22;35.42;;;11.40;99.90;;;;;;4999513;28;20472;-87
2023/05/13 01:11:14;;;;;;;75.72;35.10;;;11.40;99.90;;;;;;5015613;28;20026;-87
2023/05/13 01:13:43;;;;;;;96.13;36.17;;;11.40;99.90;;;;;;4999317;28;20483;-87
2023/05/13 01:16:18;;;;;;;111.95;34.17;;;11.40;99.90;;;;;;4999265;28;20080;-87
2023/05/13 01:18:56;;;;;;;128.90;34.97;;;11.50;99.90;;;;;;5015335;28;20064;-87
2023/05/13 01:21:25;;;;;;;91.47;35.90;;;11.50;99.90;;;;;;5015624;28;20125;-87
2023/05/13 01:23:52;;;;;;;162.60;34.20;;;11.40;99.90;;;;;;5015482;28;20475;-87
2023/05/13 01:26:19;;;;;;;144.48;35.42;;;11.30;99.90;;;;;;5004922;28;20026;-87
2023/05/13 01:28:46;;;;;;;92.75;32.60;;;11.20;99.90;;;;;;5015761;28;20435;-87
2023/05/13 01:31:13;;;;;;;129.80;34.03;;;11.10;99.90;;;;;;5015545;28;20029;-87
2023/05/13 01:33:42;;;;;;;150.30;35.85;;;11.20;99.90;;;;;;5015680;28;20539;-87
2023/05/13 01:36:09;;;;;;;89.20;32.03;;;11.20;99.90;;;;;;5015676;28;20450;-86
2023/05/13 01:38:39;;;;;;;66.97;30.80;;;11.00;99.90;;;;;;5015170;28;20068;-87
2023/05/13 01:41:05;;;;;;;75.03;31.83;;;11.00;99.90;;;;;;5015142;28;20026;-86
2023/05/13 01:43:31;;;;;;;89.90;32.70;;;11.10;99.90;;;;;;5015246;28;20092;-87
2023/05/13 01:45:59;;;;;;;65.10;29.83;;;11.10;99.90;;;;;;5018342;28;20036;-86
2023/05/13 01:48:25;;;;;;;57.55;28.38;;;11.00;99.90;;;;;;5034878;28;20029;-86
2023/05/13 01:50:52;;;;;;;45.42;23.40;;;11.00;99.90;;;;;;5035015;28;20094;-86
2023/05/13 01:53:18;;;;;;;58.38;25.83;;;11.00;99.90;;;;;;5035001;28;20391;-86
2023/05/13 01:55:46;;;;;;;63.90;24.77;;;11.00;99.90;;;;;;5034737;28;20029;-86
2023/05/13 01:58:12;;;;;;;57.70;25.80;;;10.80;99.90;;;;;;5051283;28;20025;-86
2023/05/13 02:00:39;;;;;;;69.35;23.73;;;11.00;99.90;;;;;;5035208;28;20029;-86
2023/05/13 02:03:05;;;;;;;52.67;24.30;;;10.90;99.90;;;;;;5034449;28;20053;-86
2023/05/13 02:05:32;;;;;;;55.25;24.60;;;10.90;99.90;;;;;;5044982;23;20034;-61
2023/05/13 02:08:01;;;;;;;57.20;26.27;;;11.00;99.90;;;;;;4997306;28;20042;-60
2023/05/13 02:10:28;;;;;;;64.70;26.30;;;11.00;99.90;;;;;;4997407;28;20033;-60
2023/05/13 02:12:54;;;;;;;53.30;25.80;;;11.10;99.90;;;;;;4997436;28;20041;-60
2023/05/13 02:15:20;;;;;;;61.55;28.60;;;11.00;99.90;;;;;;4997351;28;20124;-60
2023/05/13 02:17:46;;;;;;;78.68;26.00;;;11.20;99.90;;;;;;4997480;28;20424;-60
2023/05/13 02:20:13;;;;;;;67.38;24.33;;;11.20;99.90;;;;;;4997359;28;20379;-60
2023/05/13 02:22:40;;;;;;;45.05;22.65;;;11.00;99.90;;;;;;4996936;28;20171;-60
2023/05/13 02:25:07;;;;;;;50.60;22.98;;;10.80;99.90;;;;;;4997410;28;20479;-60
2023/05/13 02:27:33;;;;;;;56.22;23.85;;;10.90;99.90;;;;;;4997209;28;20030;-60
2023/05/13 02:29:59;;;;;;;46.47;24.30;;;10.80;99.90;;;;;;5014883;28;20494;-61
2023/05/13 02:32:25;;;;;;;41.15;21.85;;;10.80;99.90;;;;;;4997227;28;20061;-61
2023/05/13 02:34:51;;;;;;;54.75;21.20;;;10.90;99.90;;;;;;5014573;28;20100;-61
2023/05/13 02:37:17;;;;;;;57.95;21.55;;;10.90;99.90;;;;;;4996995;28;20065;-60
2023/05/13 02:39:52;;;;;;;57.45;20.90;;;10.80;99.90;;;;;;4997037;28;20034;-61
2023/05/13 02:42:18;;;;;;;46.53;22.27;;;10.80;99.90;;;;;;4997088;28;20053;-60
2023/05/13 02:44:44;;;;;;;46.53;22.55;;;10.90;99.90;;;;;;4996805;28;20064;-60
2023/05/13 02:47:12;;;;;;;51.83;22.50;;;10.90;99.90;;;;;;4997057;28;20482;-60
2023/05/13 02:49:38;;;;;;;37.53;21.20;;;10.80;99.90;;;;;;4996985;28;20033;-60
2023/05/13 02:52:05;;;;;;;42.85;20.60;;;10.90;99.90;;;;;;4980885;28;20121;-60
2023/05/13 02:54:34;;;;;;;67.47;18.90;;;11.00;99.90;;;;;;4997079;28;20030;-60
2023/05/13 02:56:59;;;;;;;66.05;19.02;;;10.90;99.90;;;;;;4996899;28;20034;-60
2023/05/13 02:59:26;;;;;;;33.70;19.20;;;10.90;99.90;;;;;;5014433;28;20322;-60
2023/05/13 03:01:52;;;;;;;35.50;19.13;;;10.80;99.90;;;;;;5014653;28;20356;-60
2023/05/13 03:04:17;;;;;;;50.22;20.05;;;10.80;99.90;;;;;;4996729;28;20029;-60
2023/05/13 03:06:43;;;;;;;45.58;20.13;;;10.90;99.90;;;;;;4996584;28;20049;-60
2023/05/13 03:09:09;;;;;;;62.10;19.85;;;10.90;99.90;;;;;;5014411;28;20395;-61
2023/05/13 03:11:35;;;;;;;62.80;17.77;;;10.90;99.90;;;;;;5014357;28;20026;-60
2023/05/13 03:14:01;;;;;;;77.07;18.70;;;10.80;99.90;;;;;;5014339;28;20041;-60
2023/05/13 03:16:27;;;;;;;70.45;19.88;;;10.70;99.90;;;;;;5014449;28;20034;-60
2023/05/13 03:18:53;;;;;;;69.20;18.30;;;10.70;99.90;;;;;;4996582;28;20045;-60
2023/05/13 03:21:19;;;;;;;49.00;19.20;;;10.60;99.90;;;;;;4996708;28;20030;-60
2023/05/13 03:23:45;;;;;;;90.45;20.92;;;10.60;99.90;;;;;;4996639;28;20117;-60
2023/05/13 03:26:11;;;;;;;39.75;20.13;;;10.50;99.90;;;;;;4996637;28;20041;-61
2023/05/13 03:28:38;;;;;;;33.83;18.80;;;10.50;99.90;;;;;;4996665;28;20022;-60
2023/05/13 03:31:04;;;;;;;36.28;18.23;;;10.60;99.90;;;;;;4996748;28;20029;-60
2023/05/13 03:33:34;;;;;;;34.67;18.85;;;10.60;99.90;;;;;;4996592;28;20042;-60
2023/05/13 03:36:00;;;;;;;34.45;18.33;;;10.70;99.90;;;;;;5014190;28;20076;-60
2023/05/13 03:38:30;;;;;;;43.17;18.30;;;10.80;99.90;;;;;;4996582;28;20040;-60
2023/05/13 03:40:56;;;;;;;55.70;16.35;;;10.80;99.90;;;;;;4996463;28;20054;-61
2023/05/13 03:43:22;;;;;;;75.45;16.88;;;10.70;99.90;;;;;;4996559;28;20057;-61
2023/05/13 03:45:54;;;;;;;35.35;16.88;;;10.60;99.90;;;;;;4997531;28;20037;-60
2023/05/13 03:48:21;;;;;;;90.07;19.05;;;10.50;99.90;;;;;;5000006;28;20038;-61
2023/05/13 03:50:47;;;;;;;48.80;18.77;;;10.40;99.90;;;;;;5000049;28;20030;-60
2023/05/13 03:53:15;;;;;;;55.78;19.00;;;10.30;99.90;;;;;;5000055;28;20045;-61
2023/05/13 03:55:42;;;;;;;73.25;22.02;;;10.50;99.90;;;;;;4999817;28;20483;-61
2023/05/13 03:58:13;;;;;;;48.75;20.38;;;10.40;99.90;;;;;;4999908;28;20041;-61
2023/05/13 04:00:39;;;;;;;;;;;10.40;99.90;;;;;;5000082;28;20026;-61
2023/05/13 04:03:06;;;;;;;106.65;21.40;;;10.40;99.90;;;;;;4999702;28;20371;-61
2023/05/13 04:05:32;;;;;;;102.07;21.92;;;10.40;99.90;;;;;;5017247;28;20041;-61
2023/05/13 04:07:58;;;;;;;89.57;22.17;;;10.30;99.90;;;;;;5017187;28;20052;-60
2023/05/13 04:10:24;;;;;;;55.60;22.38;;;10.30;99.90;;;;;;5017342;28;20026;-61
2023/05/13 04:12:50;;;;;;;68.70;23.25;;;10.50;99.90;;;;;;5017063;28;20058;-61
2023/05/13 04:15:16;;;;;;;73.25;22.98;;;10.50;99.90;;;;;;5017125;28;20037;-60
2023/05/13 04:17:42;;;;;;;53.08;22.55;;;10.50;99.90;;;;;;5016991;28;20113;-60
2023/05/13 04:20:08;;;;;;;41.60;22.45;;;10.50;99.90;;;;;;5017266;28;20030;-61
2023/05/13 04:22:34;;;;;;;63.28;21.15;;;10.70;99.90;;;;;;4999298;28;20508;-60
2023/05/13 04:25:00;;;;;;;77.25;23.60;;;10.60;99.90;;;;;;5016917;28;20033;-60
2023/05/13 04:27:26;;;;;;;39.28;21.85;;;10.60;99.90;;;;;;5016838;28;20034;-60
2023/05/13 04:29:59;;;;;;;44.97;22.23;;;10.70;99.90;;;;;;4999295;28;20041;-61
2023/05/13 04:32:26;;;;;;;49.90;21.20;;;10.80;99.90;;;;;;4999175;28;20120;-60
2023/05/13 04:34:54;;;;;;;44.92;22.85;;;10.80;99.90;;;;;;4999268;28;20333;-61
2023/05/13 04:37:21;;;;;;;44.65;24.80;;;10.80;99.90;;;;;;4999025;28;20030;-61
2023/05/13 04:39:49;;;;;;;47.55;27.23;;;10.70;99.90;;;;;;4998940;28;20466;-61
2023/05/13 04:42:18;;;;;;;85.80;24.80;;;10.90;99.90;;;;;;4998902;28;20037;-60
2023/05/13 04:44:44;;;;;;;65.05;26.20;;;10.90;99.90;;;;;;4998814;28;20029;-60
2023/05/13 04:47:10;;;;;;;52.72;27.42;;;10.70;99.90;;;;;;4998939;28;20030;-61
2023/05/13 04:49:36;;;;;;;56.97;29.33;;;10.70;99.90;;;;;;5016470;28;20364;-61
2023/05/13 04:52:03;;;;;;;50.60;27.38;;;10.70;99.90;;;;;;5016398;28;20711;-60
2023/05/13 04:54:30;;;;;;;47.22;24.42;;;10.80;99.90;;;;;;4998682;28;20069;-60
2023/05/13 04:56:56;;;;;;;48.25;25.02;;;10.70;99.90;;;;;;5016314;28;20057;-61
2023/05/13 04:59:23;;;;;;;39.42;23.23;;;10.90;99.90;;;;;;4998560;28;20037;-60
2023/05/13 05:01:49;;;;;;;36.50;20.13;;;10.90;99.90;;;;;;4998603;28;20479;-61
2023/05/13 05:04:16;;;;;;;29.60;17.90;;;10.90;99.90;;;;;;4998650;28;20025;-61
2023/05/13 05:06:42;;;;;;;30.33;17.45;;;10.90;99.90;;;;;;4998315;28;20049;-61
2023/05/13 05:09:08;;;;;;;36.90;21.05;;;10.80;99.90;;;;;;4998459;28;20030;-60
2023/05/13 05:11:34;;;;;;;31.65;19.50;;;11.00;99.90;;;;;;4998439;28;20038;-61
2023/05/13 05:14:00;;;;;;;40.42;17.30;;;11.10;99.90;;;;;;4998186;28;20060;-60
2023/05/13 05:16:26;;;;;;;34.08;18.13;;;10.80;99.90;;;;;;4998394;28;20037;-60
2023/05/13 05:18:52;;;;;;;27.48;16.73;;;10.80;99.90;;;;;;4998389;28;20038;-60
2023/05/13 05:21:18;;;;;;;61.85;26.50;;;10.60;99.90;;;;;;4998145;28;20112;-59
2023/05/13 05:23:44;;;;;;;55.35;27.33;;;10.80;99.90;;;;;;4998132;28;20111;-60
2023/05/13 05:26:11;;;;;;;53.35;27.23;;;10.70;99.90;;;;;;4998257;28;20038;-60
2023/05/13 05:28:38;;;;;;;42.55;24.10;;;10.80;99.90;;;;;;4998190;28;20136;-60
2023/05/13 05:31:05;;;;;;;42.60;23.75;;;11.00;99.90;;;;;;4998474;28;20548;-60
2023/05/13 05:33:33;;;;;;;42.80;23.02;;;11.20;99.90;;;;;;4997903;28;20026;-61
2023/05/13 05:35:59;;;;;;;39.47;21.80;;;11.20;99.90;;;;;;4998017;28;20041;-60
2023/05/13 05:38:25;;;;;;;23.23;14.20;;;11.40;99.90;;;;;;5015609;28;20036;-60
2023/05/13 05:40:53;;;;;;;27.88;15.75;;;11.60;99.90;;;;;;4997929;28;20113;-61
2023/05/13 05:43:19;;;;;;;33.60;16.10;;;11.80;99.90;;;;;;5015512;28;20110;-60
2023/05/13 05:45:45;;;;;;;28.02;15.90;;;12.00;99.90;;;;;;5015325;28;20076;-60
2023/05/13 05:48:15;;;;;;;23.30;13.57;;;12.20;99.90;;;;;;4997646;28;20121;-61
2023/05/13 05:50:42;;;;;;;19.73;10.85;;;12.30;99.90;;;;;;4997692;28;20034;-60
2023/05/13 05:53:10;;;;;;;15.93;10.35;;;12.40;99.90;;;;;;4997753;28;20045;-60
2023/05/13 05:55:38;;;;;;;23.58;10.38;;;12.60;99.90;;;;;;4997695;28;20026;-60
2023/05/13 05:58:05;;;;;;;10.40;8.50;;;12.80;99.90;;;;;;4997491;28;20040;-60
2023/05/13 06:00:33;;;;;;;17.10;10.07;;;13.00;99.90;;;;;;4997559;28;20026;-60
2023/05/13 06:02:59;;;;;;;21.52;11.63;;;13.00;99.90;;;;;;4997586;28;20033;-60
2023/05/13 06:05:25;;;;;;;19.17;12.48;;;13.00;99.90;;;;;;4997252;28;20479;-60
2023/05/13 06:07:51;;;;;;;17.48;12.27;;;13.00;99.90;;;;;;4981391;28;20026;-61
2023/05/13 06:10:17;;;;;;;20.40;12.07;;;13.20;99.90;;;;;;4997009;28;20029;-60
2023/05/13 06:12:43;;;;;;;20.88;12.57;;;13.30;99.90;;;;;;4997300;28;20112;-60
2023/05/13 06:15:10;;;;;;;17.75;11.45;;;13.50;99.90;;;;;;4981279;28;20061;-60
2023/05/13 06:17:36;;;;;;;24.50;12.98;;;13.70;99.90;;;;;;4997430;28;20118;-60
2023/05/13 06:20:05;;;;;;;20.10;12.73;;;13.80;99.90;;;;;;4997142;28;20057;-60
2023/05/13 06:22:31;;;;;;;16.60;11.00;;;14.00;99.90;;;;;;5014920;28;20430;-60
2023/05/13 06:24:57;;;;;;;16.52;11.23;;;14.30;99.90;;;;;;5014852;28;20033;-60
2023/05/13 06:27:23;;;;;;;16.20;11.80;;;14.40;99.90;;;;;;5014868;28;20025;-60
2023/05/13 06:29:49;;;;;;;22.67;13.18;;;14.80;99.90;;;;;;4997170;28;20045;-60
2023/05/13 06:32:15;;;;;;;21.60;12.77;;;15.10;99.90;;;;;;4997019;28;20309;-60
2023/05/13 06:34:45;;;;;;;18.05;12.57;;;14.80;99.90;;;;;;5014991;28;20387;-60
2023/05/13 06:37:15;;;;;;;17.85;12.95;;;15.20;99.90;;;;;;5014677;28;20026;-60
2023/05/13 06:39:41;;;;;;;19.90;13.48;;;15.10;99.90;;;;;;4997005;28;20079;-60
2023/05/13 06:42:07;;;;;;;28.13;13.93;;;15.50;99.90;;;;;;5014798;28;20065;-61
2023/05/13 06:44:53;;;;;;;20.90;13.27;;;15.80;99.90;;;;;;4963766;28;20031;-60
2023/05/13 06:47:25;;;;;;;18.05;11.23;;;16.10;99.90;;;;;;4953931;29;20043;-60
2023/05/13 06:49:51;;;;;;;20.35;11.70;;;16.10;99.90;;;;;;4954026;29;20126;-60
2023/05/13 06:52:17;;;;;;;18.17;12.30;;;16.20;99.90;;;;;;4953818;29;20119;-60
2023/05/13 06:54:43;;;;;;;21.40;13.55;;;16.30;99.90;;;;;;4953855;29;20047;-60
2023/05/13 06:57:09;;;;;;;24.38;15.05;;;16.20;99.90;;;;;;4954064;29;20034;-60
2023/05/13 06:59:35;;;;;;;22.25;13.48;;;16.00;99.90;;;;;;4953819;29;20050;-60
2023/05/13 07:02:01;;;;;;;19.63;12.73;;;16.20;99.90;;;;;;4953717;29;20070;-61
2023/05/13 07:04:29;;;;;;;22.20;13.63;;;16.40;99.90;;;;;;4953785;29;20118;-60
2023/05/13 07:06:55;;;;;;;17.85;11.52;;;16.20;99.90;;;;;;4953571;29;20047;-60
2023/05/13 07:09:22;;;;;;;20.70;12.27;;;16.50;99.90;;;;;;4953469;29;20115;-60
2023/05/13 07:11:48;;;;;;;20.35;12.60;;;16.70;99.90;;;;;;4953787;29;20039;-60
2023/05/13 07:14:14;;;;;;;17.27;12.35;;;16.80;99.90;;;;;;4953526;29;20477;-60
2023/05/13 07:16:40;;;;;;;25.50;13.27;;;17.10;99.90;;;;;;5004006;28;20088;-60
2023/05/13 07:19:05;;;;;;;17.85;11.25;;;17.20;99.90;;;;;;5014453;28;20053;-60
2023/05/13 07:21:32;;;;;;;22.10;11.73;;;17.10;99.90;;;;;;5016439;28;20026;-61
2023/05/13 07:23:57;;;;;;;18.83;11.13;;;17.70;99.90;;;;;;5017989;28;20026;-61
2023/05/13 07:26:23;;;;;;;23.35;10.95;;;17.60;99.90;;;;;;5018076;28;20025;-60
2023/05/13 07:28:49;;;;;;;18.23;10.05;;;18.20;99.90;;;;;;5017893;28;20044;-60
2023/05/13 07:31:15;;;;;;;22.15;11.90;;;18.50;99.90;;;;;;5018066;28;20026;-61
2023/05/13 07:33:41;;;;;;;28.17;15.63;;;18.70;99.90;;;;;;5018059;28;20034;-60
2023/05/13 07:36:07;;;;;;;19.83;10.48;;;19.00;99.90;;;;;;5017846;28;20029;-60
2023/05/13 07:38:33;;;;;;;22.17;12.05;;;18.40;98.00;;;;;;5017775;28;20030;-60
2023/05/13 07:40:59;;;;;;;20.42;10.35;;;18.10;99.90;;;;;;5018191;28;20040;-60
2023/05/13 07:43:26;;;;;;;28.33;11.90;;;17.90;99.40;;;;;;5017873;28;20092;-60
2023/05/13 07:45:52;;;;;;;20.63;10.45;;;17.90;99.90;;;;;;5017736;28;20169;-60
2023/05/13 07:48:18;;;;;;;27.92;11.68;;;18.00;99.90;;;;;;5017801;28;20049;-60
2023/05/13 07:50:45;;;;;;;22.20;10.52;;;17.90;99.90;;;;;;5017481;28;20038;-60
2023/05/13 07:53:11;;;;;;;27.17;11.18;;;18.20;99.90;;;;;;5017707;28;20026;-60
2023/05/13 07:55:37;;;;;;;24.33;10.35;;;18.30;99.90;;;;;;5017563;28;20475;-60
2023/05/13 07:58:03;;;;;;;16.17;9.88;;;18.10;99.90;;;;;;5017083;28;20025;-60
2023/05/13 08:00:29;;;;;;;20.08;10.90;;;18.00;99.90;;;;;;5017525;28;20156;-61
2023/05/13 08:02:55;;;;;;;22.90;10.75;;;18.20;99.90;;;;;;5017516;28;20026;-60
2023/05/13 08:05:21;;;;;;;19.67;10.50;;;18.30;99.90;;;;;;5017221;28;20025;-60
2023/05/13 08:07:47;;;;;;;17.42;8.35;;;18.40;99.90;;;;;;5017273;28;20030;-60
2023/05/13 08:10:13;;;;;;;17.50;9.15;;;18.60;99.90;;;;;;5017082;28;20391;-60
2023/05/13 08:12:39;;;;;;;21.17;9.30;;;18.60;99.90;;;;;;5017130;28;20105;-60
2023/05/13 08:15:06;;;;;;;15.48;9.07;;;18.60;99.30;;;;;;5017287;28;20399;-61
2023/05/13 08:17:33;;;;;;;17.50;9.15;;;18.10;99.90;;;;;;5017070;28;20025;-60
2023/05/13 08:20:00;;;;;;;19.98;9.63;;;18.50;99.90;;;;;;5016979;28;20051;-60
2023/05/13 08:22:26;;;;;;;21.70;9.90;;;18.80;99.50;;;;;;5017087;28;20026;-60
2023/05/13 08:24:53;;;;;;;16.55;10.30;;;19.00;99.00;;;;;;5017001;28;20018;-61
2023/05/13 08:27:19;;;;;;;27.83;9.82;;;19.20;99.80;;;;;;4999214;28;20037;-61
2023/05/13 08:29:44;;;;;;;22.92;10.05;;;19.50;97.30;;;;;;5016964;28;20037;-60
2023/05/13 08:32:11;;;;;;;28.00;10.38;;;19.20;97.20;;;;;;5016573;28;20053;-61
2023/05/13 08:34:37;;;;;;;27.13;10.15;;;19.20;97.80;;;;;;5016766;28;20037;-60
2023/05/13 08:37:03;;;;;;;19.75;9.13;;;19.20;99.50;;;;;;5016859;28;20034;-60
2023/05/13 08:39:29;;;;;;;14.55;7.63;;;19.30;98.10;;;;;;5016660;28;20052;-60
2023/05/13 08:41:58;;;;;;;17.48;8.90;;;19.30;96.20;;;;;;5016680;28;20036;-61
2023/05/13 08:44:28;;;;;;;16.30;9.38;;;19.20;95.90;;;;;;5016603;28;20020;-60
2023/05/13 08:47:23;;;;;;;17.92;8.20;;;19.20;96.40;;;;;;5016640;28;20033;-60
2023/05/13 08:49:49;;;;;;;14.32;7.20;;;19.10;99.40;;;;;;5016443;28;20434;-61
2023/05/13 08:52:17;;;;;;;18.92;8.60;;;19.40;98.30;;;;;;5016671;28;20049;-60
2023/05/13 08:54:45;;;;;;;14.10;7.63;;;19.70;98.20;;;;;;5016313;28;20056;-60
2023/05/13 08:57:11;;;;;;;14.32;7.22;;;20.50;97.90;;;;;;5016706;28;20030;-61
2023/05/13 08:59:37;;;;;;;12.68;6.72;;;21.00;94.00;;;;;;5016271;28;20033;-61
2023/05/13 09:02:04;;;;;;;17.20;7.03;;;20.20;93.60;;;;;;4998344;28;20114;-61
2023/05/13 09:04:31;;;;;;;12.98;6.70;;;20.30;93.70;;;;;;5016243;28;20518;-61
2023/05/13 09:06:58;;;;;;;12.68;7.18;;;21.20;91.80;;;;;;5015837;28;20080;-61
2023/05/13 09:09:24;;;;;;;11.90;7.60;;;21.80;90.40;;;;;;4981837;28;20041;-61
2023/05/13 09:11:50;;;;;;;13.52;7.53;;;21.70;88.60;;;;;;5016103;28;20064;-60
2023/05/13 09:14:18;;;;;;;11.05;6.50;;;22.00;87.90;;;;;;5015959;28;20030;-60
2023/05/13 09:16:46;;;;;;;11.63;6.47;;;22.70;88.50;;;;;;4998342;28;20025;-62
2023/05/13 09:19:12;;;;;;;10.60;5.10;;;23.30;84.90;;;;;;5015980;28;20040;-61
2023/05/13 09:21:38;;;;;;;14.05;6.13;;;23.20;75.20;;;;;;5015830;28;20037;-61
2023/05/13 09:24:07;;;;;;;12.07;5.00;;;23.40;75.60;;;;;;5015711;28;20026;-61
2023/05/13 09:26:33;;;;;;;21.95;6.28;;;23.70;76.10;;;;;;5015695;28;20435;-61
2023/05/13 09:29:18;;;;;;;17.13;5.72;;;23.70;73.10;;;;;;5015598;28;20034;-61
2023/05/13 09:31:45;;;;;;;9.25;4.22;;;23.70;68.30;;;;;;5015640;28;20036;-61
2023/05/13 09:34:12;;;;;;;14.05;5.30;;;22.90;68.20;;;;;;4998236;28;20041;-61
2023/05/13 09:36:38;;;;;;;17.55;5.78;;;23.50;68.30;;;;;;5015627;28;20033;-61
2023/05/13 09:39:04;;;;;;;11.25;3.90;;;23.70;69.30;;;;;;4997606;28;20108;-61
2023/05/13 09:41:31;;;;;;;9.50;4.18;;;23.50;68.80;;;;;;5015790;28;20038;-62
2023/05/13 09:44:00;;;;;;;9.50;4.55;;;24.00;63.70;;;;;;5014737;28;20026;-61
2023/05/13 09:46:26;;;;;;;15.00;4.75;;;24.00;64.10;;;;;;5015384;28;20033;-61
2023/05/13 09:48:57;;;;;;;9.80;3.83;;;24.00;63.30;;;;;;5015486;28;20076;-62
2023/05/13 09:51:30;;;;;;;9.80;4.03;;;24.40;68.20;;;;;;4997735;28;20029;-62
2023/05/13 09:54:06;;;;;;;6.97;2.95;;;24.80;62.70;;;;;;5015384;28;20028;-61
2023/05/13 09:56:34;;;;;;;7.47;3.20;;;24.50;59.80;;;;;;4997882;28;20093;-61
2023/05/13 09:59:01;;;;;;;6.88;3.25;;;24.30;55.50;;;;;;4997242;28;20052;-61
2023/05/13 10:01:28;;;;;;;5.70;2.38;;;24.30;59.90;;;;;;5015684;28;20439;-61
2023/05/13 10:03:57;;;;;;;7.30;2.78;;;24.20;51.90;;;;;;4981287;28;20030;-61
2023/05/13 10:06:29;;;;;;;6.45;2.10;;;23.70;56.00;;;;;;4997134;28;20049;-61
2023/05/13 10:08:57;;;;;;;7.72;3.80;;;23.90;56.00;;;;;;4997490;28;20034;-61
2023/05/13 10:11:25;;;;;;;7.22;2.25;;;23.80;57.10;;;;;;4997415;28;20113;-61
2023/05/13 10:14:09;;;;;;;7.70;2.42;;;23.70;57.40;;;;;;4981073;28;20141;-61
2023/05/13 10:16:35;;;;;;;5.93;2.40;;;23.70;53.90;;;;;;5015030;28;20468;-61
2023/05/13 10:19:02;;;;;;;6.97;1.98;;;23.20;52.80;;;;;;5014784;28;20108;-61
2023/05/13 10:21:30;;;;;;;5.10;2.05;;;23.30;53.30;;;;;;5014855;28;20034;-61
2023/05/13 10:23:57;;;;;;;5.45;1.70;;;23.30;51.40;;;;;;4997535;28;20082;-61
2023/05/13 10:26:24;;;;;;;3.85;1.40;;;22.60;52.00;;;;;;5014694;28;20018;-61
2023/05/13 10:28:50;;;;;;;4.43;1.73;;;22.50;53.40;;;;;;5014961;28;20483;-61
2023/05/13 10:31:16;;;;;;;4.70;2.15;;;22.60;51.40;;;;;;4997124;28;20029;-61
2023/05/13 10:33:43;;;;;;;10.18;2.78;;;22.90;54.00;;;;;;5014566;28;20065;-62
2023/05/13 10:36:41;;;;;;;5.85;2.22;;;23.20;54.90;;;;;;4997171;28;20141;-61
2023/05/13 10:39:44;;;;;;;3.88;1.55;;;23.30;55.10;;;;;;5014769;28;20479;-61
2023/05/13 10:42:31;;;;;;;6.65;2.35;;;23.90;55.00;;;;;;5012447;28;20044;-61
2023/05/13 10:44:58;;;;;;;3.38;1.65;;;24.40;53.30;;;;;;5014660;28;20033;-61
2023/05/13 10:47:24;;;;;;;5.82;2.35;;;24.60;52.10;;;;;;4997021;28;20033;-61
2023/05/13 10:49:51;;;;;;;4.28;2.15;;;25.10;52.00;;;;;;4996952;28;20029;-61
2023/05/13 10:52:18;;;;;;;10.75;2.88;;;25.40;50.40;;;;;;4996989;28;20030;-61
2023/05/13 10:55:02;;;;;;;7.25;3.08;;;25.10;49.30;;;;;;5015405;28;20430;-61
2023/05/13 10:57:38;;;;;;;3.35;1.63;;;25.30;49.30;;;;;;5018660;28;20060;-61
2023/05/13 11:00:16;;;;;;;4.20;1.27;;;25.60;46.10;;;;;;5018583;28;20030;-62
2023/05/13 11:02:42;;;;;;;10.05;1.95;;;25.10;50.70;;;;;;5018416;28;20064;-61
2023/05/13 11:05:09;;;;;;;2.60;1.23;;;25.30;50.20;;;;;;5018352;28;20060;-61
2023/05/13 11:07:38;;;;;;;4.50;1.30;;;25.50;47.20;;;;;;5018270;28;20042;-61
2023/05/13 11:10:28;;;;;;;3.80;1.43;;;25.60;47.30;;;;;;5000462;28;20033;-62
2023/05/13 11:13:07;;;;;;;4.57;1.35;;;25.50;44.10;;;;;;5000685;28;20479;-61
2023/05/13 11:15:44;;;;;;;6.45;2.08;;;24.90;42.10;;;;;;5018318;28;20060;-61
2023/05/13 11:18:14;;;;;;;6.53;1.70;;;24.50;44.40;;;;;;5000478;28;20033;-61
2023/05/13 11:20:43;;;;;;;5.80;1.65;;;24.40;47.90;;;;;;5018194;28;20037;-61
2023/05/13 11:23:16;;;;;;;5.18;2.33;;;25.00;49.90;;;;;;5018214;28;20037;-61
2023/05/13 11:25:44;;;;;;;5.55;1.60;;;25.70;49.10;;;;;;5018035;28;20029;-61
2023/05/13 11:28:15;;;;;;;5.70;1.38;;;25.20;46.10;;;;;;5000657;28;20022;-61
2023/05/13 11:30:54;;;;;;;3.88;1.23;;;25.70;53.80;;;;;;5017957;28;20034;-61
2023/05/13 11:33:20;;;;;;;5.50;1.63;;;26.10;43.60;;;;;;5000298;28;20022;-61
2023/05/13 11:35:56;;;;;;;5.15;1.38;;;26.50;44.00;;;;;;5000336;28;20030;-62
2023/05/13 11:38:23;;;;;;;4.28;1.73;;;25.00;43.70;;;;;;5017648;28;20441;-61
2023/05/13 11:40:51;;;;;;;4.93;1.40;;;25.50;45.60;;;;;;5017814;28;20072;-61
2023/05/13 11:43:21;;;;;;;4.00;1.50;;;24.80;44.90;;;;;;5017803;28;20088;-62
2023/05/13 11:45:47;;;;;;;4.55;1.60;;;24.60;45.70;;;;;;5017412;28;20033;-62
2023/05/13 11:48:23;;;;;;;4.20;1.40;;;24.30;44.20;;;;;;5017771;28;20054;-61
2023/05/13 11:50:50;;;;;;;6.00;2.67;;;25.20;47.40;;;;;;5017488;28;20534;-61
2023/05/13 11:53:21;;;;;;;8.20;2.42;;;24.00;47.10;;;;;;5017474;28;20026;-61
2023/05/13 11:55:47;;;;;;;;;;;24.10;48.00;;;;;;5018031;28;20022;-62
2023/05/13 11:58:15;;;;;;;5.32;1.50;;;24.10;47.70;;;;;;5017383;28;19916;-62
2023/05/13 12:00:41;;;;;;;4.78;1.45;;;22.40;51.40;;;;;;4999840;28;20478;-62
2023/05/13 12:03:12;;;;;;;7.88;2.17;;;22.20;51.40;;;;;;5017436;28;20022;-61
2023/05/13 12:05:42;;;;;;;5.53;2.15;;;22.00;51.50;;;;;;5017230;28;20022;-62
2023/05/13 12:08:09;;;;;;;13.70;1.80;;;21.70;54.80;;;;;;5016716;28;20030;-62
2023/05/13 12:10:41;;;;;;;4.60;1.70;;;20.80;57.50;;;;;;5017190;28;20026;-62
2023/05/13 12:13:07;;;;;;;3.13;1.50;;;19.80;60.50;;;;;;4999452;28;20037;-61
2023/05/13 12:15:34;;;;;;;6.25;1.88;;;19.20;60.80;;;;;;5016819;28;20033;-61
2023/05/13 12:18:00;;;;;;;7.47;1.70;;;19.00;61.50;;;;;;4999538;28;20503;-61
2023/05/13 12:20:26;;;;;;;7.03;1.33;;;18.70;63.50;;;;;;5017040;28;20089;-61
2023/05/13 12:22:55;;;;;;;4.03;1.60;;;18.90;64.70;;;;;;5017096;28;20557;-61
2023/05/13 12:25:42;;;;;;;5.55;1.40;;;18.80;68.40;;;;;;4999579;28;20030;-61
2023/05/13 12:28:12;;;;;;;6.10;1.73;;;18.70;70.10;;;;;;4982913;28;20037;-61
2023/05/13 12:30:40;;;;;;;6.35;3.60;;;18.20;75.40;;;;;;4999446;28;20483;-61
2023/05/13 12:33:19;;;;;;;5.88;1.95;;;18.20;79.50;;;;;;4999324;28;20030;-61
2023/05/13 12:35:48;;;;;;;4.88;2.35;;;18.00;80.70;;;;;;5016587;28;20061;-61
2023/05/13 12:38:16;;;;;;;4.65;1.75;;;17.90;97.10;;;;;;4983030;28;20033;-61